Monon, Indiana
Current Conditions -  °F | °C
As of 2:15 PM on Friday 24 Oct 2014 (Local Time) from KMCX Reporting Station
Broken Clouds Broken Clouds  
Wind Chill: 63°   Ceiling: 2700
Heat Index: 63°   Visibility: 10mi
Dew Point: 53°   Wind: 9mph
Humidity: 70%   Direction: 240°WSW
Pressure: 30.03"   Gusts: NA
Location:  40.87°N, 86.88°W
Report Text: KMCX 241815Z AUTO 24008KT 10SM BKN027 17/12 A3003 RMK AO2 T01710116
Loading
Personal Weather Stations






























Interactive Weather Map
Tropical Storm Tracking
New forecast layout! Learn more

10-Day Weather Forecast

Advertisements
Track Severe Weather on mobile